Aviation Digital Data Service (ADDS)

Output produced by METARs form (0020 UTC 17 July 2019)
found at http://www.aviationweather.gov/metar/data/
 
TAF FNBG 162300Z 1700/1712 21005KT 9999 SCT015 
     PROB30 
     TEMPO 1702/1707 5000 BR 
     TEMPO 1708/1712 30010KT CAVOK
       
FNCA 161900Z 18005KT 9000 FEW025 BKN080 23/20 Q1014
TAF FNCA 162300Z 1700/1712 18005KT 8000 BKN020 
     PROB30 
     TEMPO 1702/1707 5000 BR 
     TEMPO 1708/1712 26008KT 9999 FEW020
       
TAF FNDU 162300Z 1700/1712 15006KT 7000 NSC 
     TEMPO 1702/1707 2000 BR
       
TAF FNHU 162300Z 1700/1712 09010KT CAVOK
       
TAF FNKU 162300Z 1700/1712 11010KT CAVOK
       
FNLU 170000Z VRB03KT 5000 BR NSC 20/20 Q1014
TAF FNLU 162300Z 1700/1806 16005KT 7000 BKN020 
     TEMPO 1703/1708 VRB03KT 4000 BR 
     BECMG 1711/1713 28010KT 9000 NSC 
     BECMG 1718/1720 21005KT
       
TAF FNUE 162300Z 1700/1712 14007KT CAVOK
       
TAF FNMA 162300Z 1700/1712 11006KT 8000 BKN015 
     TEMPO 1703/1708 4000 BR
       
TAF FNME 162300Z 1700/1712 11008KT CAVOK
       
TAF FNMO 162300Z 1700/1712 18006KT 9000 BKN012 
     PROB30 
     TEMPO 1702/1707 2000 BR 
     TEMPO 1708/1712 29012KT
       
TAF FNGI 162300Z 1700/1712 08008KT CAVOK
       
TAF FNSA 162300Z 1700/1712 15006KT CAVOK 
     PROB30 
     TEMPO 1702/1706 8000 NSC
       
TAF FNSO 162300Z 1700/1712 23006KT 8000 BKN012 
     TEMPO 1702/1708 4000 BR 
     TEMPO 1708/1712 FEW015